createdAt,value
2017-03-01T00:00:04.866Z,0
2017-03-01T00:01:04.035Z,0
2017-03-01T00:02:04.404Z,0
2017-03-01T00:03:04.791Z,0
2017-03-01T00:04:04.745Z,0
2017-03-01T00:05:04.711Z,0
2017-03-01T00:06:04.714Z,0
2017-03-01T00:07:04.275Z,0
2017-03-01T00:08:04.668Z,0
2017-03-01T00:09:04.596Z,0
2017-03-01T00:10:04.605Z,0
2017-03-01T00:11:04.186Z,0
2017-03-01T00:12:04.546Z,0
2017-03-01T00:13:04.116Z,0
2017-03-01T00:14:04.084Z,0
2017-03-01T00:15:04.473Z,0
2017-03-01T00:16:04.418Z,0
2017-03-01T00:17:04.405Z,0
2017-03-01T00:18:04.375Z,0
2017-03-01T00:19:04.355Z,0
2017-03-01T00:20:04.335Z,0
2017-03-01T00:21:04.306Z,0
2017-03-01T00:22:04.276Z,0
2017-03-01T00:23:04.229Z,0
2017-03-01T00:24:03.837Z,0
2017-03-01T00:25:04.226Z,0
2017-03-01T00:26:04.175Z,0
2017-03-01T00:27:04.150Z,0
2017-03-01T00:28:04.138Z,0
2017-03-01T00:29:04.073Z,0
2017-03-01T00:30:04.073Z,0
2017-03-01T00:31:04.051Z,0
2017-03-01T00:32:04.047Z,0
2017-03-01T00:33:04.011Z,0
2017-03-01T00:34:04.003Z,0
2017-03-01T00:35:03.940Z,0
2017-03-01T00:36:03.548Z,0
2017-03-01T00:37:03.902Z,0
2017-03-01T00:38:03.858Z,0
2017-03-01T00:39:03.833Z,0
2017-03-01T00:40:03.819Z,0
2017-03-01T00:41:03.790Z,0
2017-03-01T00:42:03.775Z,0
2017-03-01T00:43:03.731Z,0
2017-03-01T00:44:03.744Z,0
2017-03-01T00:45:03.704Z,0
2017-03-01T00:46:03.676Z,0
2017-03-01T00:47:03.650Z,0
2017-03-01T00:48:03.631Z,0
2017-03-01T00:49:03.615Z,0
2017-03-01T00:50:03.573Z,0
2017-03-01T00:51:03.552Z,0
2017-03-01T00:52:03.504Z,0
2017-03-01T00:53:03.487Z,0
2017-03-01T00:54:03.451Z,0
2017-03-01T00:55:03.081Z,0
2017-03-01T00:56:03.016Z,0
2017-03-01T00:57:03.388Z,0
2017-03-01T00:58:03.361Z,0
2017-03-01T00:59:03.336Z,0
2017-03-01T01:00:03.302Z,0
2017-03-01T01:01:03.275Z,0
2017-03-01T01:02:02.872Z,0
2017-03-01T01:03:03.247Z,0
2017-03-01T01:04:03.194Z,0
2017-03-01T01:05:03.179Z,0
2017-03-01T01:06:03.171Z,0
2017-03-01T01:07:03.166Z,0
2017-03-01T01:08:03.111Z,0
2017-03-01T01:09:03.086Z,0
2017-03-01T01:10:03.060Z,0
2017-03-01T01:11:03.005Z,0
2017-03-01T01:12:03.016Z,0
2017-03-01T01:13:02.994Z,0
2017-03-01T01:14:02.980Z,0
2017-03-01T01:15:02.924Z,0
2017-03-01T01:16:02.922Z,0
2017-03-01T01:17:02.883Z,0
2017-03-01T01:18:02.477Z,0
2017-03-01T01:19:02.853Z,0
2017-03-01T01:20:02.806Z,0
2017-03-01T01:21:02.777Z,0
2017-03-01T01:22:02.748Z,0
2017-03-01T01:23:02.753Z,0
2017-03-01T01:24:02.709Z,0
2017-03-01T01:25:02.688Z,0
2017-03-01T01:26:02.669Z,0
2017-03-01T01:27:02.611Z,0
2017-03-01T01:28:02.609Z,0
2017-03-01T01:29:02.598Z,0
2017-03-01T01:30:02.537Z,0
2017-03-01T01:31:01.772Z,0
2017-03-01T01:32:02.506Z,0
2017-03-01T01:33:02.092Z,0
2017-03-01T01:34:02.429Z,0
2017-03-01T01:35:02.030Z,0
2017-03-01T01:36:02.017Z,0
2017-03-01T01:37:02.335Z,0
2017-03-01T01:38:02.337Z,0
2017-03-01T01:39:02.324Z,0
2017-03-01T01:40:02.336Z,0
2017-03-01T01:41:02.257Z,0
2017-03-01T01:42:02.249Z,0
2017-03-01T01:43:02.238Z,0
2017-03-01T01:44:02.205Z,0
2017-03-01T01:45:02.183Z,0
2017-03-01T01:46:02.166Z,0
2017-03-01T01:47:02.101Z,0
2017-03-01T01:48:02.076Z,0
2017-03-01T01:49:02.039Z,0
2017-03-01T01:50:02.026Z,0
2017-03-01T01:51:02.040Z,0
2017-03-01T01:52:01.973Z,0
2017-03-01T01:53:01.938Z,0
2017-03-01T01:54:01.916Z,0
2017-03-01T01:55:01.511Z,0
2017-03-01T01:56:01.494Z,0
2017-03-01T01:57:01.846Z,0
2017-03-01T01:58:01.825Z,0
2017-03-01T01:59:01.787Z,0
2017-03-01T02:00:01.815Z,0
2017-03-01T02:01:01.733Z,0
2017-03-01T02:02:01.739Z,0
2017-03-01T02:03:01.734Z,0
2017-03-01T02:04:01.656Z,0
2017-03-01T02:05:01.644Z,0
2017-03-01T02:06:01.627Z,0
2017-03-01T02:07:01.589Z,0
2017-03-01T02:08:01.560Z,0
2017-03-01T02:09:01.555Z,0
2017-03-01T02:10:01.529Z,0
2017-03-01T02:11:01.464Z,0
2017-03-01T02:12:01.455Z,0
2017-03-01T02:13:01.448Z,0
2017-03-01T02:14:01.432Z,0
2017-03-01T02:15:01.393Z,0
2017-03-01T02:16:01.334Z,0
2017-03-01T02:17:01.322Z,0
2017-03-01T02:18:01.315Z,0
2017-03-01T02:19:01.275Z,0
2017-03-01T02:20:01.243Z,0
2017-03-01T02:21:01.233Z,0
2017-03-01T02:22:01.233Z,0
2017-03-01T02:23:00.796Z,0
2017-03-01T02:24:01.165Z,0
2017-03-01T02:25:01.156Z,0
2017-03-01T02:26:01.090Z,0
2017-03-01T02:27:01.079Z,0
2017-03-01T02:28:01.052Z,0
2017-03-01T02:29:01.008Z,0
2017-03-01T02:30:01.004Z,0
2017-03-01T02:31:00.967Z,0
2017-03-01T02:32:00.958Z,0
2017-03-01T02:33:00.909Z,0
2017-03-01T02:34:00.895Z,0
2017-03-01T02:35:00.857Z,0
2017-03-01T02:36:00.865Z,0
2017-03-01T02:37:00.817Z,0
2017-03-01T02:38:00.791Z,0
2017-03-01T02:39:00.770Z,0
2017-03-01T02:40:00.753Z,0
2017-03-01T02:41:00.715Z,0
2017-03-01T02:42:00.703Z,0
2017-03-01T02:43:00.651Z,0
2017-03-01T02:44:00.665Z,0
2017-03-01T02:45:00.625Z,0
2017-03-01T02:46:00.591Z,0
2017-03-01T02:47:00.570Z,0
2017-03-01T02:48:00.519Z,0
2017-03-01T02:49:00.483Z,0
2017-03-01T02:50:00.464Z,0
2017-03-01T02:51:00.484Z,0
2017-03-01T02:52:00.434Z,0
2017-03-01T02:53:00.417Z,0
2017-03-01T02:54:00.375Z,0
2017-03-01T02:55:00.368Z,0
2017-03-01T02:56:00.348Z,0
2017-03-01T02:56:59.894Z,0
2017-03-01T02:57:59.871Z,0
2017-03-01T02:59:00.246Z,0
2017-03-01T02:59:59.832Z,0
2017-03-01T03:01:00.240Z,0
2017-03-01T03:02:00.152Z,0
2017-03-01T03:03:00.144Z,0
2017-03-01T03:04:00.137Z,0
2017-03-01T03:05:00.100Z,0
2017-03-01T03:06:00.069Z,0
2017-03-01T03:07:00.009Z,0
2017-03-01T03:08:00.024Z,0
2017-03-01T03:08:59.988Z,0
2017-03-01T03:09:59.985Z,0
2017-03-01T03:10:59.936Z,0
2017-03-01T03:11:59.896Z,0
2017-03-01T03:12:59.877Z,0
2017-03-01T03:13:59.824Z,0
2017-03-01T03:14:59.823Z,0
2017-03-01T03:15:59.810Z,0
2017-03-01T03:16:59.759Z,0
2017-03-01T03:17:59.736Z,0
2017-03-01T03:18:59.737Z,0
2017-03-01T03:19:59.680Z,0
2017-03-01T03:20:59.653Z,0
2017-03-01T03:21:59.633Z,0
2017-03-01T03:22:59.616Z,0
2017-03-01T03:23:59.578Z,0
2017-03-01T03:24:59.548Z,0
2017-03-01T03:25:59.516Z,0
2017-03-01T03:26:59.489Z,0
2017-03-01T03:27:59.493Z,0
2017-03-01T03:28:59.466Z,0
2017-03-01T03:29:59.429Z,0
2017-03-01T03:30:59.418Z,0
2017-03-01T03:31:59.385Z,0
2017-03-01T03:32:59.339Z,0
2017-03-01T03:33:59.328Z,0
2017-03-01T03:34:58.920Z,0
2017-03-01T03:35:59.257Z,0
2017-03-01T03:36:59.220Z,0
2017-03-01T03:37:59.238Z,0
2017-03-01T03:38:59.220Z,0
2017-03-01T03:39:59.145Z,0
2017-03-01T03:40:59.129Z,0
2017-03-01T03:41:59.125Z,0
2017-03-01T03:42:59.115Z,0
2017-03-01T03:43:59.065Z,0
2017-03-01T03:44:58.653Z,0
2017-03-01T03:45:58.970Z,0
2017-03-01T03:46:58.962Z,0
2017-03-01T03:47:58.933Z,0
2017-03-01T03:48:58.917Z,0
2017-03-01T03:49:58.899Z,0
2017-03-01T03:50:58.904Z,0
2017-03-01T03:51:58.833Z,0
2017-03-01T03:52:58.818Z,0
2017-03-01T03:53:58.794Z,0
2017-03-01T03:54:58.764Z,0
2017-03-01T03:55:58.742Z,0
2017-03-01T03:56:58.701Z,0
2017-03-01T03:57:58.673Z,0
2017-03-01T03:58:58.667Z,0
2017-03-01T03:59:58.643Z,0
2017-03-01T04:00:58.600Z,0
2017-03-01T04:01:58.580Z,0
2017-03-01T04:02:58.546Z,0
2017-03-01T04:03:58.771Z,0
2017-03-01T04:05:11.871Z,0
2017-03-01T04:06:11.736Z,0
2017-03-01T04:06:58.427Z,0
2017-03-01T04:07:58.400Z,0
2017-03-01T04:08:58.399Z,0
2017-03-01T04:09:58.350Z,0
2017-03-01T04:10:58.340Z,0
2017-03-01T04:11:58.313Z,0
2017-03-01T04:12:58.309Z,0
2017-03-01T04:13:58.246Z,0
2017-03-01T04:14:58.225Z,0
2017-03-01T04:15:58.189Z,0
2017-03-01T04:16:57.775Z,0
2017-03-01T04:17:58.132Z,0
2017-03-01T04:18:58.114Z,0
2017-03-01T04:19:58.084Z,0
2017-03-01T04:20:57.680Z,0
2017-03-01T04:21:58.022Z,0
2017-03-01T04:22:58.013Z,0
2017-03-01T04:23:57.990Z,0
2017-03-01T04:24:57.945Z,0
2017-03-01T04:25:57.925Z,0
2017-03-01T04:26:57.937Z,0
2017-03-01T04:27:57.897Z,0
2017-03-01T04:28:57.838Z,0
2017-03-01T04:29:57.440Z,0
2017-03-01T04:30:57.791Z,0
2017-03-01T04:31:57.754Z,0
2017-03-01T04:32:57.756Z,0
2017-03-01T04:33:57.715Z,0
2017-03-01T04:34:57.292Z,0
2017-03-01T04:35:57.501Z,0
2017-03-01T04:36:57.621Z,0
2017-03-01T04:37:57.628Z,0
2017-03-01T04:38:57.564Z,0
2017-03-01T04:39:57.567Z,0
2017-03-01T04:40:57.779Z,0
2017-03-01T04:41:57.498Z,0
2017-03-01T04:42:57.482Z,0
2017-03-01T04:43:57.484Z,0
2017-03-01T04:44:57.633Z,0
2017-03-01T04:45:57.387Z,0
2017-03-01T04:46:57.344Z,0
2017-03-01T04:47:57.355Z,0
2017-03-01T04:48:57.319Z,0
2017-03-01T04:49:57.309Z,0
2017-03-01T04:50:57.247Z,0
2017-03-01T04:51:57.256Z,0
2017-03-01T04:52:57.231Z,0
2017-03-01T04:53:57.176Z,0
2017-03-01T04:54:57.166Z,0
2017-03-01T04:55:57.132Z,0
2017-03-01T04:56:57.090Z,0
2017-03-01T04:57:57.077Z,0
2017-03-01T04:58:57.042Z,0
2017-03-01T04:59:57.003Z,0
2017-03-01T05:00:56.809Z,0
2017-03-01T05:01:56.956Z,0
2017-03-01T05:02:56.919Z,0
2017-03-01T05:03:56.906Z,0
2017-03-01T05:04:56.871Z,0
2017-03-01T05:05:56.866Z,0
2017-03-01T05:06:57.045Z,0
2017-03-01T05:07:56.809Z,0
2017-03-01T05:08:56.797Z,0
2017-03-01T05:09:56.740Z,0
2017-03-01T05:10:56.727Z,0
2017-03-01T05:11:56.712Z,0
2017-03-01T05:12:56.668Z,0
2017-03-01T05:13:56.647Z,0
2017-03-01T05:14:56.614Z,0
2017-03-01T05:15:56.218Z,0
2017-03-01T05:16:56.592Z,0
2017-03-01T05:17:56.553Z,0
2017-03-01T05:18:56.500Z,0
2017-03-01T05:19:56.476Z,0
2017-03-01T05:20:56.469Z,0
2017-03-01T05:21:56.413Z,0
2017-03-01T05:22:56.427Z,0
2017-03-01T05:23:56.371Z,0
2017-03-01T05:24:56.342Z,0
2017-03-01T05:25:56.315Z,0
2017-03-01T05:26:56.287Z,0
2017-03-01T05:27:56.263Z,4
2017-03-01T05:28:56.270Z,4
2017-03-01T05:29:56.211Z,4
2017-03-01T05:30:56.192Z,4
2017-03-01T05:31:55.770Z,4
2017-03-01T05:32:56.154Z,8
2017-03-01T05:33:56.105Z,8
2017-03-01T05:34:56.076Z,8
2017-03-01T05:35:56.049Z,12
2017-03-01T05:36:55.677Z,12
2017-03-01T05:37:55.990Z,16
2017-03-01T05:38:55.960Z,20
2017-03-01T05:39:55.963Z,24
2017-03-01T05:40:55.925Z,28
2017-03-01T05:41:55.912Z,36
2017-03-01T05:42:55.680Z,44
2017-03-01T05:43:55.834Z,52
2017-03-01T05:44:55.431Z,64
2017-03-01T05:45:55.395Z,80
2017-03-01T05:46:55.739Z,96
2017-03-01T05:47:55.334Z,116
2017-03-01T05:48:55.321Z,132
2017-03-01T05:49:55.673Z,164
2017-03-01T05:50:55.290Z,184
2017-03-01T05:51:55.616Z,212
2017-03-01T05:52:55.575Z,248
2017-03-01T05:53:55.178Z,264
2017-03-01T05:54:55.575Z,288
2017-03-01T05:55:55.510Z,344
2017-03-01T05:56:55.078Z,360
2017-03-01T05:57:55.478Z,408
2017-03-01T05:58:55.426Z,440
2017-03-01T05:59:55.418Z,460
2017-03-01T06:00:55.406Z,504
2017-03-01T06:01:55.347Z,528
2017-03-01T06:03:08.966Z,560
2017-03-01T06:03:55.296Z,584
2017-03-01T06:04:55.287Z,636
2017-03-01T06:05:55.247Z,648
2017-03-01T06:06:55.211Z,700
2017-03-01T06:07:55.413Z,724
2017-03-01T06:08:55.396Z,800
2017-03-01T06:09:55.151Z,820
2017-03-01T06:10:55.116Z,836
2017-03-01T06:11:55.067Z,876
2017-03-01T06:12:55.097Z,936
2017-03-01T06:13:55.259Z,984
2017-03-01T06:14:54.997Z,1116
2017-03-01T06:15:54.979Z,1116
2017-03-01T06:16:54.941Z,1176
2017-03-01T06:17:54.912Z,1232
2017-03-01T06:18:54.912Z,1260
2017-03-01T06:19:54.473Z,1376
2017-03-01T06:20:54.884Z,1452
2017-03-01T06:21:54.821Z,1740
2017-03-01T06:22:54.783Z,2040
2017-03-01T06:23:54.805Z,2204
2017-03-01T06:24:54.739Z,2536
2017-03-01T06:25:54.700Z,2256
2017-03-01T06:26:54.319Z,2588
2017-03-01T06:27:54.668Z,2256
2017-03-01T06:28:54.233Z,2560
2017-03-01T06:29:54.209Z,2320
2017-03-01T06:30:54.585Z,2640
2017-03-01T06:31:54.555Z,2420
2017-03-01T06:32:54.582Z,2608
2017-03-01T06:33:54.712Z,2908
2017-03-01T06:34:54.503Z,2988
2017-03-01T06:35:54.442Z,3352
2017-03-01T06:36:54.060Z,4096
2017-03-01T06:37:54.412Z,3836
2017-03-01T06:38:53.986Z,4256
2017-03-01T06:40:07.726Z,4552
2017-03-01T06:40:54.331Z,4632
2017-03-01T06:41:53.909Z,4960
2017-03-01T06:42:54.265Z,6152
2017-03-01T06:43:54.249Z,5540
2017-03-01T06:44:54.184Z,9592
2017-03-01T06:45:54.221Z,7052
2017-03-01T06:46:54.146Z,5452
2017-03-01T06:47:54.137Z,8516
2017-03-01T06:48:54.138Z,7740
2017-03-01T06:49:54.086Z,5852
2017-03-01T06:50:53.292Z,8176
2017-03-01T06:51:54.045Z,8740
2017-03-01T06:52:53.988Z,7016
2017-03-01T06:53:53.983Z,7224
2017-03-01T06:54:53.973Z,5868
2017-03-01T06:55:53.929Z,8220
2017-03-01T06:56:53.902Z,9128
2017-03-01T06:57:53.888Z,7424
2017-03-01T06:58:53.836Z,7912
2017-03-01T06:59:53.836Z,8572
2017-03-01T07:00:53.397Z,11524
2017-03-01T07:01:53.809Z,10232
2017-03-01T07:02:53.753Z,10416
2017-03-01T07:03:53.703Z,10532
2017-03-01T07:04:53.680Z,12308
2017-03-01T07:05:53.662Z,11368
2017-03-01T07:06:53.684Z,9932
2017-03-01T07:07:53.599Z,9768
2017-03-01T07:08:52.803Z,8164
2017-03-01T07:09:53.558Z,8900
2017-03-01T07:10:53.515Z,14988
2017-03-01T07:11:53.112Z,11580
2017-03-01T07:12:53.462Z,16928
2017-03-01T07:13:53.075Z,19520
2017-03-01T07:14:53.039Z,16124
2017-03-01T07:15:53.380Z,13524
2017-03-01T07:16:53.402Z,15708
2017-03-01T07:17:53.339Z,16784
2017-03-01T07:18:53.304Z,15424
2017-03-01T07:19:53.287Z,17280
2017-03-01T07:20:53.272Z,15168
2017-03-01T07:21:53.277Z,15012
2017-03-01T07:22:52.445Z,20512
2017-03-01T07:23:53.156Z,23392
2017-03-01T07:24:53.201Z,17632
2017-03-01T07:25:53.111Z,13852
2017-03-01T07:26:53.083Z,11668
2017-03-01T07:27:53.066Z,20320
2017-03-01T07:28:53.046Z,14416
2017-03-01T07:29:53.026Z,11976
2017-03-01T07:30:52.993Z,14292
2017-03-01T07:31:52.984Z,14608
2017-03-01T07:32:52.927Z,19456
2017-03-01T07:33:52.912Z,14452
2017-03-01T07:34:52.908Z,14236
2017-03-01T07:35:52.874Z,13640
2017-03-01T07:36:52.465Z,10088
2017-03-01T07:37:52.041Z,22336
2017-03-01T07:38:52.794Z,19648
2017-03-01T07:39:52.781Z,18880
2017-03-01T07:40:51.970Z,16976
2017-03-01T07:41:52.733Z,21376
2017-03-01T07:42:52.682Z,19712
2017-03-01T07:43:52.664Z,14696
2017-03-01T07:44:52.632Z,13692
2017-03-01T07:45:52.614Z,19648
2017-03-01T07:46:52.593Z,11348
2017-03-01T07:47:52.183Z,14832
2017-03-01T07:48:52.174Z,22464
2017-03-01T07:49:52.540Z,21920
2017-03-01T07:50:52.155Z,24736
2017-03-01T07:51:52.493Z,20224
2017-03-01T07:52:52.042Z,14472
2017-03-01T07:53:52.401Z,26080
2017-03-01T07:54:52.382Z,20992
2017-03-01T07:55:52.367Z,17196
2017-03-01T07:56:52.313Z,17476
2017-03-01T07:57:52.346Z,17600
2017-03-01T07:58:52.272Z,20224
2017-03-01T07:59:52.255Z,17680
2017-03-01T08:00:52.228Z,20320
2017-03-01T08:01:52.212Z,20064
2017-03-01T08:02:52.178Z,20320
2017-03-01T08:03:52.170Z,18816
2017-03-01T08:04:52.117Z,21536
2017-03-01T08:05:51.730Z,20224
2017-03-01T08:06:52.054Z,20096
2017-03-01T08:07:52.073Z,19680
2017-03-01T08:08:52.013Z,24736
2017-03-01T08:09:52.025Z,18528
2017-03-01T08:10:51.966Z,22208
2017-03-01T08:11:51.992Z,27520
2017-03-01T08:12:51.908Z,30720
2017-03-01T08:13:51.533Z,26368
2017-03-01T08:14:51.881Z,26080
2017-03-01T08:15:51.857Z,20512
2017-03-01T08:16:51.799Z,25664
2017-03-01T08:17:51.820Z,20768
2017-03-01T08:18:51.759Z,24128
2017-03-01T08:19:51.347Z,25248
2017-03-01T08:20:51.716Z,22112
2017-03-01T08:21:51.679Z,24000
2017-03-01T08:22:51.671Z,24608
2017-03-01T08:23:51.260Z,26592
2017-03-01T08:24:51.593Z,27232
2017-03-01T08:25:51.588Z,22944
2017-03-01T08:26:51.559Z,23680
2017-03-01T08:27:51.539Z,30304
2017-03-01T08:28:51.548Z,33408
2017-03-01T08:29:51.489Z,26528
2017-03-01T08:30:51.450Z,27968
2017-03-01T08:31:51.049Z,22880
2017-03-01T08:32:51.404Z,23456
2017-03-01T08:33:51.380Z,25888
2017-03-01T08:34:51.351Z,28256
2017-03-01T08:35:51.331Z,38304
2017-03-01T08:36:51.308Z,28800
2017-03-01T08:37:51.283Z,24704
2017-03-01T08:38:51.228Z,34304
2017-03-01T08:39:51.228Z,30112
2017-03-01T08:40:51.209Z,27424
2017-03-01T08:41:50.788Z,34368
2017-03-01T08:42:51.117Z,29664
2017-03-01T08:43:51.147Z,28672
2017-03-01T08:44:50.687Z,21600
2017-03-01T08:45:51.073Z,28608
2017-03-01T08:46:51.034Z,30912
2017-03-01T08:47:50.636Z,26240
2017-03-01T08:48:50.987Z,26784
2017-03-01T08:49:50.966Z,28320
2017-03-01T08:50:50.544Z,33408
2017-03-01T08:51:50.929Z,32576
2017-03-01T08:52:50.543Z,23648
2017-03-01T08:53:50.467Z,22816
2017-03-01T08:54:50.448Z,22560
2017-03-01T08:55:50.830Z,24416
2017-03-01T08:56:50.798Z,24288
2017-03-01T08:57:50.786Z,25184
2017-03-01T08:58:50.337Z,27136
2017-03-01T08:59:50.320Z,26304
2017-03-01T09:00:50.689Z,23488
2017-03-01T09:01:50.708Z,23680
2017-03-01T09:02:50.653Z,26432
2017-03-01T09:03:50.635Z,28288
2017-03-01T09:04:50.789Z,29088
2017-03-01T09:05:50.575Z,25440
2017-03-01T09:06:50.537Z,25568
2017-03-01T09:07:50.506Z,23776
2017-03-01T09:08:50.493Z,24352
2017-03-01T09:09:50.446Z,28000
2017-03-01T09:10:50.094Z,26976
2017-03-01T09:11:50.412Z,28000
2017-03-01T09:12:50.429Z,28704
2017-03-01T09:13:50.355Z,29568
2017-03-01T09:14:50.335Z,30368
2017-03-01T09:15:50.303Z,30976
2017-03-01T09:16:50.287Z,30592
2017-03-01T09:17:50.240Z,35840
2017-03-01T09:18:50.243Z,31776
2017-03-01T09:19:50.215Z,25472
2017-03-01T09:20:50.187Z,30976
2017-03-01T09:21:49.791Z,30080
2017-03-01T09:22:50.140Z,30944
2017-03-01T09:23:50.111Z,30272
2017-03-01T09:24:50.100Z,25952
2017-03-01T09:25:50.074Z,34624
2017-03-01T09:26:50.044Z,39072
2017-03-01T09:27:50.007Z,38272
2017-03-01T09:28:49.963Z,37344
2017-03-01T09:29:49.980Z,30496
2017-03-01T09:30:49.953Z,29184
2017-03-01T09:31:49.938Z,39840
2017-03-01T09:32:49.887Z,41088
2017-03-01T09:33:49.848Z,29472
2017-03-01T09:34:49.861Z,35392
2017-03-01T09:35:49.811Z,28480
2017-03-01T09:36:49.770Z,29216
2017-03-01T09:37:49.747Z,33024
2017-03-01T09:38:49.741Z,34944
2017-03-01T09:39:49.711Z,32160
2017-03-01T09:40:49.699Z,32288
2017-03-01T09:41:49.651Z,32448
2017-03-01T09:42:49.613Z,35424
2017-03-01T09:43:49.627Z,29888
2017-03-01T09:44:49.584Z,39904
2017-03-01T09:45:49.544Z,35872
2017-03-01T09:46:49.530Z,30720
2017-03-01T09:47:49.532Z,33344
2017-03-01T09:48:49.496Z,30592
2017-03-01T09:49:49.445Z,34944
2017-03-01T09:50:49.413Z,33344
2017-03-01T09:51:49.403Z,32864
2017-03-01T09:52:49.380Z,31072
2017-03-01T09:53:49.359Z,32992
2017-03-01T09:54:49.344Z,35360
2017-03-01T09:55:49.311Z,32128
2017-03-01T09:56:49.268Z,37280
2017-03-01T09:57:49.250Z,35008
2017-03-01T09:58:49.239Z,33120
2017-03-01T09:59:49.216Z,25728
2017-03-01T10:00:49.187Z,34176
2017-03-01T10:01:49.151Z,35776
2017-03-01T10:02:49.115Z,42080
2017-03-01T10:03:49.114Z,39808
2017-03-01T10:04:49.076Z,36640
2017-03-01T10:05:49.045Z,30848
2017-03-01T10:06:49.015Z,32224
2017-03-01T10:07:48.623Z,36800
2017-03-01T10:08:48.997Z,35840
2017-03-01T10:09:48.960Z,31744
2017-03-01T10:10:48.932Z,33920
2017-03-01T10:11:48.934Z,42272
2017-03-01T10:12:48.092Z,54304
2017-03-01T10:13:48.865Z,28704
2017-03-01T10:14:48.054Z,31552
2017-03-01T10:15:48.827Z,40864
2017-03-01T10:16:48.801Z,36192
2017-03-01T10:17:48.775Z,33600
2017-03-01T10:18:48.744Z,37920
2017-03-01T10:19:48.743Z,42944
2017-03-01T10:20:48.678Z,42400
2017-03-01T10:21:48.673Z,36576
2017-03-01T10:22:48.708Z,35648
2017-03-01T10:23:48.606Z,33536
2017-03-01T10:24:48.221Z,29696
2017-03-01T10:25:48.574Z,29280
2017-03-01T10:26:48.561Z,37120
2017-03-01T10:27:48.155Z,38336
2017-03-01T10:28:48.103Z,34880
2017-03-01T10:29:48.088Z,44160
2017-03-01T10:30:48.061Z,39520
2017-03-01T10:31:48.043Z,29440
2017-03-01T10:32:48.014Z,35360
2017-03-01T10:33:47.617Z,33088
2017-03-01T10:34:47.947Z,38848
2017-03-01T10:35:48.360Z,42368
2017-03-01T10:36:47.900Z,45376
2017-03-01T10:37:48.285Z,38048
2017-03-01T10:38:47.478Z,46304
2017-03-01T10:39:48.227Z,46432
2017-03-01T10:40:48.183Z,35008
2017-03-01T10:41:48.179Z,38688
2017-03-01T10:42:48.175Z,41024
2017-03-01T10:43:48.130Z,61920
2017-03-01T10:44:47.735Z,50528
2017-03-01T10:45:47.681Z,53824
2017-03-01T10:46:48.055Z,42624
2017-03-01T10:47:47.657Z,46112
2017-03-01T10:48:48.006Z,39328
2017-03-01T10:49:47.982Z,35360
2017-03-01T10:50:47.976Z,34464
2017-03-01T10:51:47.919Z,28736
2017-03-01T10:52:47.910Z,43264
2017-03-01T10:53:47.877Z,42784
2017-03-01T10:54:47.864Z,40928
2017-03-01T10:55:47.443Z,53152
2017-03-01T10:56:47.826Z,49728
2017-03-01T10:57:47.825Z,44320
2017-03-01T10:58:47.386Z,41088
2017-03-01T10:59:47.726Z,40224
2017-03-01T11:00:47.707Z,38976
2017-03-01T11:01:47.699Z,48736
2017-03-01T11:02:47.681Z,42144
2017-03-01T11:03:47.266Z,43584
2017-03-01T11:04:47.250Z,49408
2017-03-01T11:05:47.197Z,32512
2017-03-01T11:06:47.591Z,48160
2017-03-01T11:07:47.192Z,50208
2017-03-01T11:08:47.156Z,41280
2017-03-01T11:09:47.089Z,44480
2017-03-01T11:10:47.098Z,42368
2017-03-01T11:11:47.455Z,83840
2017-03-01T11:12:47.043Z,52544
2017-03-01T11:13:47.410Z,43744
2017-03-01T11:14:47.010Z,37376
2017-03-01T11:15:47.349Z,49056
2017-03-01T11:16:47.343Z,47200
2017-03-01T11:17:47.291Z,40448
2017-03-01T11:18:47.291Z,46016
2017-03-01T11:19:47.264Z,39008
2017-03-01T11:20:46.858Z,35776
2017-03-01T11:21:46.817Z,43232
2017-03-01T11:22:47.195Z,44832
2017-03-01T11:23:46.790Z,28288
2017-03-01T11:24:47.134Z,38880
2017-03-01T11:25:47.102Z,86592
2017-03-01T11:26:47.131Z,86336
2017-03-01T11:27:47.067Z,87456
2017-03-01T11:28:47.067Z,48928
2017-03-01T11:29:47.018Z,38176
2017-03-01T11:30:47.002Z,35168
2017-03-01T11:31:46.961Z,58496
2017-03-01T11:32:46.986Z,30816
2017-03-01T11:33:46.914Z,38368
2017-03-01T11:34:46.887Z,36608
2017-03-01T11:35:46.882Z,38688
2017-03-01T11:36:46.481Z,31264
2017-03-01T11:37:46.838Z,39808
2017-03-01T11:38:46.807Z,33344
2017-03-01T11:39:46.790Z,38656
2017-03-01T11:40:46.748Z,37312
2017-03-01T11:41:46.725Z,34688
2017-03-01T11:42:46.705Z,49312
2017-03-01T11:43:46.669Z,42720
2017-03-01T11:44:46.270Z,44416
2017-03-01T11:45:46.631Z,54016
2017-03-01T11:46:46.597Z,42624
2017-03-01T11:47:46.598Z,38560
2017-03-01T11:48:46.186Z,37952
2017-03-01T11:49:46.536Z,50752
2017-03-01T11:50:46.523Z,34816
2017-03-01T11:51:46.470Z,39072
2017-03-01T11:52:46.462Z,40224
2017-03-01T11:53:46.436Z,32320
2017-03-01T11:54:46.425Z,34560
2017-03-01T11:55:46.389Z,37696
2017-03-01T11:56:46.372Z,35424
2017-03-01T11:57:45.947Z,32352
2017-03-01T11:58:46.333Z,33568
2017-03-01T11:59:46.291Z,31072
2017-03-01T12:00:46.255Z,26560
2017-03-01T12:01:46.247Z,24672
2017-03-01T12:02:45.865Z,23840
2017-03-01T12:03:45.828Z,25344
2017-03-01T12:04:46.157Z,26016
2017-03-01T12:05:45.743Z,25120
2017-03-01T12:06:46.137Z,23520
2017-03-01T12:07:45.715Z,23200
2017-03-01T12:08:45.698Z,28960
2017-03-01T12:09:46.046Z,49472
2017-03-01T12:10:45.636Z,36544
2017-03-01T12:11:45.613Z,30944
2017-03-01T12:12:45.968Z,34144
2017-03-01T12:13:45.955Z,32096
2017-03-01T12:14:45.921Z,25344
2017-03-01T12:15:45.912Z,27808
2017-03-01T12:16:45.897Z,26688
2017-03-01T12:17:45.460Z,28960
2017-03-01T12:18:45.830Z,31040
2017-03-01T12:19:45.816Z,36096
2017-03-01T12:20:45.799Z,37056
2017-03-01T12:21:45.761Z,40416
2017-03-01T12:22:45.327Z,39008
2017-03-01T12:23:45.692Z,38432
2017-03-01T12:24:45.674Z,37024
2017-03-01T12:25:45.677Z,29088
2017-03-01T12:26:45.629Z,34304
2017-03-01T12:27:45.616Z,36032
2017-03-01T12:28:45.575Z,32576
2017-03-01T12:29:45.625Z,33216
2017-03-01T12:30:45.528Z,31712
2017-03-01T12:31:45.540Z,32224
2017-03-01T12:32:45.486Z,27904
2017-03-01T12:33:45.445Z,29440
2017-03-01T12:34:45.426Z,30112
2017-03-01T12:35:45.419Z,34144
2017-03-01T12:36:44.992Z,33792
2017-03-01T12:37:44.590Z,34048
2017-03-01T12:38:45.354Z,37088
2017-03-01T12:39:45.303Z,37344
2017-03-01T12:40:44.911Z,34880
2017-03-01T12:41:44.925Z,33728
2017-03-01T12:42:45.228Z,34656
2017-03-01T12:43:45.223Z,32416
2017-03-01T12:44:45.186Z,30528
2017-03-01T12:45:45.194Z,31648
2017-03-01T12:46:45.137Z,31840
2017-03-01T12:47:45.111Z,33440
2017-03-01T12:48:45.089Z,31104
2017-03-01T12:49:44.690Z,30784
2017-03-01T12:50:44.638Z,29632
2017-03-01T12:51:45.023Z,29376
2017-03-01T12:52:44.621Z,29888
2017-03-01T12:53:44.971Z,31680
2017-03-01T12:54:44.568Z,32448
2017-03-01T12:55:44.945Z,31872
2017-03-01T12:56:44.894Z,31424
2017-03-01T12:57:44.518Z,31488
2017-03-01T12:58:44.463Z,32608
2017-03-01T12:59:44.806Z,34880
2017-03-01T13:00:44.820Z,36320
2017-03-01T13:01:44.785Z,35360
2017-03-01T13:02:44.793Z,33856
2017-03-01T13:03:44.711Z,35136
2017-03-01T13:04:44.704Z,33056
2017-03-01T13:05:44.663Z,31936
2017-03-01T13:06:44.261Z,31712
2017-03-01T13:07:44.645Z,33312
2017-03-01T13:08:44.603Z,33312
2017-03-01T13:09:44.615Z,33696
2017-03-01T13:10:44.189Z,33728
2017-03-01T13:11:44.531Z,33440
2017-03-01T13:12:44.503Z,33376
2017-03-01T13:13:44.103Z,33792
2017-03-01T13:14:44.456Z,31648
2017-03-01T13:15:44.455Z,30688
2017-03-01T13:16:44.465Z,32384
2017-03-01T13:17:44.402Z,34272
2017-03-01T13:18:44.343Z,34208
2017-03-01T13:19:44.340Z,34848
2017-03-01T13:20:44.307Z,30752
2017-03-01T13:21:44.322Z,29632
2017-03-01T13:22:44.248Z,31488
2017-03-01T13:23:44.236Z,32640
2017-03-01T13:24:44.235Z,32384
2017-03-01T13:25:44.191Z,31264
2017-03-01T13:26:44.155Z,29536
2017-03-01T13:27:44.151Z,30240
2017-03-01T13:28:44.101Z,29664
2017-03-01T13:29:44.108Z,31712
2017-03-01T13:30:43.693Z,32128
2017-03-01T13:31:43.676Z,30464
2017-03-01T13:32:44.065Z,30336
2017-03-01T13:33:43.988Z,32064
2017-03-01T13:34:43.983Z,33824
2017-03-01T13:35:43.986Z,31136
2017-03-01T13:36:43.535Z,34752
2017-03-01T13:37:43.887Z,34304
2017-03-01T13:38:43.876Z,32928
2017-03-01T13:39:43.469Z,31872